Time;durP1;ratioP1;P1;durP2;ratioP2;P2;SDS_P1;SDS_P2;PMS_P1;PMS_P2;Temp;Humidity;BMP_temperature;BMP_pressure;BME280_temperature;BME280_humidity;BME280_pressure;Samples;Min_cycle;Max_cycle;Signal;HPM_P1;HPM_P2
2024/03/07 00:00:14;;;;;;;1999.90;999.90;;;;;;;;;;6122633;23;20018;-79
2024/03/07 00:02:41;;;;;;;1999.90;999.90;;;;;;;;;;6121914;23;20479;-78
2024/03/07 00:05:08;;;;;;;1999.90;999.90;;;;;;;;;;6122382;23;20112;-79
2024/03/07 00:07:35;;;;;;;1999.90;999.90;;;;;;;;;;6122501;23;20022;-78
2024/03/07 00:10:03;;;;;;;1999.90;999.90;;;;;;;;;;6122713;23;20080;-79
2024/03/07 00:12:29;;;;;;;1999.90;999.90;;;;;;;;;;6122583;23;20052;-79
2024/03/07 00:14:56;;;;;;;1999.90;999.90;;;;;;;;;;6122922;23;20022;-78
2024/03/07 00:17:24;;;;;;;1999.90;999.90;;;;;;;;;;6122283;23;20032;-78
2024/03/07 00:19:51;;;;;;;1999.90;999.90;;;;;;;;;;6122327;23;20258;-78
2024/03/07 00:22:17;;;;;;;1999.90;999.90;;;;;;;;;;6122237;23;20040;-79
2024/03/07 00:24:47;;;;;;;1999.90;999.90;;;;;;;;;;6122238;23;20475;-78
2024/03/07 00:27:14;;;;;;;1999.90;999.90;;;;;;;;;;6122312;23;20030;-79
2024/03/07 00:29:40;;;;;;;1999.90;999.90;;;;;;;;;;6122238;23;20025;-78
2024/03/07 00:32:07;;;;;;;1999.90;999.90;;;;;;;;;;6122403;23;20021;-78
2024/03/07 00:34:35;;;;;;;1999.90;999.90;;;;;;;;;;6122525;23;20033;-79
2024/03/07 00:37:02;;;;;;;1999.90;999.90;;;;;;;;;;6121954;23;20113;-78
2024/03/07 00:39:29;;;;;;;1999.90;999.90;;;;;;;;;;6122211;23;20097;-78
2024/03/07 00:41:55;;;;;;;1999.90;999.90;;;;;;;;;;6122146;23;20045;-80
2024/03/07 00:44:22;;;;;;;1999.90;999.90;;;;;;;;;;6121880;23;20022;-78
2024/03/07 00:46:48;;;;;;;1999.90;999.90;;;;;;;;;;6122264;23;20388;-77
2024/03/07 00:49:16;;;;;;;1999.90;999.90;;;;;;;;;;6122401;23;20025;-79
2024/03/07 00:51:44;;;;;;;1999.90;999.90;;;;;;;;;;6122050;23;20018;-79
2024/03/07 00:54:12;;;;;;;1999.90;999.90;;;;;;;;;;6121951;23;20026;-79
2024/03/07 00:56:39;;;;;;;1999.90;999.90;;;;;;;;;;6122065;23;20032;-79
2024/03/07 00:59:06;;;;;;;1999.90;999.90;;;;;;;;;;6121963;23;20516;-78
2024/03/07 01:01:35;;;;;;;1999.90;999.90;;;;;;;;;;6122040;23;20029;-79
2024/03/07 01:04:02;;;;;;;1999.90;999.90;;;;;;;;;;6122047;23;20022;-78
2024/03/07 01:06:28;;;;;;;1999.90;999.90;;;;;;;;;;6121834;23;20049;-79
2024/03/07 01:08:56;;;;;;;1999.90;999.90;;;;;;;;;;6121952;23;20032;-79
2024/03/07 01:11:23;;;;;;;1999.90;999.90;;;;;;;;;;6122249;23;20042;-78
2024/03/07 01:13:49;;;;;;;1999.90;999.90;;;;;;;;;;6121627;23;20109;-78
2024/03/07 01:16:16;;;;;;;1999.90;999.90;;;;;;;;;;6122061;23;20021;-78
2024/03/07 01:18:42;;;;;;;1999.90;999.90;;;;;;;;;;6122162;23;20138;-79
2024/03/07 01:21:09;;;;;;;1999.90;999.90;;;;;;;;;;6122181;23;20509;-79
2024/03/07 01:23:36;;;;;;;1999.90;999.90;;;;;;;;;;6121738;23;20075;-78
2024/03/07 01:26:04;;;;;;;1999.90;999.90;;;;;;;;;;6121996;23;20029;-79
2024/03/07 01:28:31;;;;;;;1999.90;999.90;;;;;;;;;;6121687;23;20479;-79
2024/03/07 01:30:59;;;;;;;1999.90;999.90;;;;;;;;;;6122064;23;20018;-79
2024/03/07 01:33:25;;;;;;;1999.90;999.90;;;;;;;;;;6122140;23;20029;-79
2024/03/07 01:35:52;;;;;;;1999.90;999.90;;;;;;;;;;6121477;23;20520;-79
2024/03/07 01:38:19;;;;;;;1999.90;999.90;;;;;;;;;;6121463;23;20097;-78
2024/03/07 01:40:45;;;;;;;1999.90;999.90;;;;;;;;;;6121779;23;20465;-79
2024/03/07 01:43:13;;;;;;;1999.90;999.90;;;;;;;;;;6122117;23;20046;-78
2024/03/07 01:45:40;;;;;;;1999.90;999.90;;;;;;;;;;6122219;23;20138;-80
2024/03/07 01:48:09;;;;;;;1999.90;999.90;;;;;;;;;;6122173;23;20049;-79
2024/03/07 01:50:38;;;;;;;1999.90;999.90;;;;;;;;;;6122072;23;20028;-80
2024/03/07 01:53:06;;;;;;;1999.90;999.90;;;;;;;;;;6121780;23;20106;-80
2024/03/07 01:55:33;;;;;;;1999.90;999.90;;;;;;;;;;6121847;23;20077;-79
2024/03/07 01:58:02;;;;;;;1999.90;999.90;;;;;;;;;;6121722;23;20057;-80
2024/03/07 02:00:31;;;;;;;1999.90;999.90;;;;;;;;;;6121797;23;20024;-78
2024/03/07 02:02:58;;;;;;;1999.90;999.90;;;;;;;;;;6121500;23;20028;-78
2024/03/07 02:05:25;;;;;;;1999.90;999.90;;;;;;;;;;6121508;23;20462;-78
2024/03/07 02:07:52;;;;;;;1999.90;999.90;;;;;;;;;;6121445;23;20373;-80
2024/03/07 02:10:18;;;;;;;1999.90;999.90;;;;;;;;;;6122060;23;20109;-78
2024/03/07 02:12:45;;;;;;;1999.90;999.90;;;;;;;;;;6121521;23;20121;-77
2024/03/07 02:15:13;;;;;;;1999.90;999.90;;;;;;;;;;6121895;23;20069;-79
2024/03/07 02:17:42;;;;;;;1999.90;999.90;;;;;;;;;;6121887;23;20029;-80
2024/03/07 02:20:11;;;;;;;1999.90;999.90;;;;;;;;;;6122232;23;20045;-80
2024/03/07 02:22:38;;;;;;;1999.90;999.90;;;;;;;;;;6121819;23;20437;-78
2024/03/07 02:25:07;;;;;;;1999.90;999.90;;;;;;;;;;6121444;23;20634;-80
2024/03/07 02:27:33;;;;;;;1999.90;999.90;;;;;;;;;;6121881;23;20033;-79
2024/03/07 02:30:01;;;;;;;1999.90;999.90;;;;;;;;;;6122399;23;20022;-79
2024/03/07 02:32:28;;;;;;;1999.90;999.90;;;;;;;;;;6121852;23;20018;-79
2024/03/07 02:34:54;;;;;;;1999.90;999.90;;;;;;;;;;6121798;23;20118;-79
2024/03/07 02:37:21;;;;;;;1999.90;999.90;;;;;;;;;;6121673;23;20032;-79
2024/03/07 02:39:49;;;;;;;1999.90;999.90;;;;;;;;;;6121764;23;20097;-78
2024/03/07 02:42:16;;;;;;;1999.90;999.90;;;;;;;;;;6122570;23;20021;-78
2024/03/07 02:44:42;;;;;;;1999.90;999.90;;;;;;;;;;6123555;23;20026;-78
2024/03/07 02:47:09;;;;;;;1999.90;999.90;;;;;;;;;;6123425;23;20024;-81
2024/03/07 02:49:35;;;;;;;1999.90;999.90;;;;;;;;;;6123747;23;20105;-78
2024/03/07 02:52:02;;;;;;;1999.90;999.90;;;;;;;;;;6123177;23;20029;-79
2024/03/07 02:54:28;;;;;;;1999.90;999.90;;;;;;;;;;6123349;23;20037;-78
2024/03/07 02:56:56;;;;;;;1999.90;999.90;;;;;;;;;;6123428;23;20030;-80
2024/03/07 02:59:23;;;;;;;1999.90;999.90;;;;;;;;;;6123106;23;20021;-79
2024/03/07 03:01:50;;;;;;;1999.90;999.90;;;;;;;;;;6123076;23;20388;-79
2024/03/07 03:04:17;;;;;;;1999.90;999.90;;;;;;;;;;6123177;23;20021;-80
2024/03/07 03:06:44;;;;;;;1999.90;999.90;;;;;;;;;;6123022;23;20022;-78
2024/03/07 03:09:17;;;;;;;1999.90;999.90;;;;;;;;;;6123236;23;20018;-80
2024/03/07 03:11:43;;;;;;;1999.90;999.90;;;;;;;;;;6123190;23;20026;-79
2024/03/07 03:14:11;;;;;;;1999.90;999.90;;;;;;;;;;6123009;23;20029;-79
2024/03/07 03:16:43;;;;;;;1999.90;999.90;;;;;;;;;;6122957;23;20033;-78
2024/03/07 03:19:09;;;;;;;1999.90;999.90;;;;;;;;;;6123130;23;20022;-79
2024/03/07 03:21:36;;;;;;;1999.90;999.90;;;;;;;;;;6123606;23;20065;-78
2024/03/07 03:24:04;;;;;;;1999.90;999.90;;;;;;;;;;6122974;23;20032;-78
2024/03/07 03:26:31;;;;;;;1999.90;999.90;;;;;;;;;;6123413;23;20026;-78
2024/03/07 03:28:58;;;;;;;1999.90;999.90;;;;;;;;;;6123212;23;20022;-77
2024/03/07 03:31:25;;;;;;;1999.90;999.90;;;;;;;;;;6124630;23;20097;-78
2024/03/07 03:33:52;;;;;;;1999.90;999.90;;;;;;;;;;6125531;23;20541;-78
2024/03/07 03:36:18;;;;;;;1999.90;999.90;;;;;;;;;;6131970;23;20037;-78
2024/03/07 03:38:45;;;;;;;1999.90;999.90;;;;;;;;;;6129646;23;20032;-79
2024/03/07 03:41:16;;;;;;;1999.90;999.90;;;;;;;;;;6122685;23;20022;-77
2024/03/07 03:43:42;;;;;;;1999.90;999.90;;;;;;;;;;6122891;23;20021;-78
2024/03/07 03:46:10;;;;;;;1999.90;999.90;;;;;;;;;;6122738;23;20021;-78
2024/03/07 03:48:39;;;;;;;1999.90;999.90;;;;;;;;;;6122679;23;20022;-79
2024/03/07 03:51:08;;;;;;;1999.90;999.90;;;;;;;;;;6122872;23;20048;-78
2024/03/07 03:53:34;;;;;;;1999.90;999.90;;;;;;;;;;6122439;23;20022;-78
2024/03/07 03:56:01;;;;;;;1999.90;999.90;;;;;;;;;;6122777;23;20022;-79
2024/03/07 03:58:27;;;;;;;1999.90;999.90;;;;;;;;;;6122669;23;20026;-78
2024/03/07 04:00:54;;;;;;;1999.90;999.90;;;;;;;;;;6122700;23;20026;-79
2024/03/07 04:03:21;;;;;;;1999.90;999.90;;;;;;;;;;6121840;23;20117;-78
2024/03/07 04:05:49;;;;;;;1999.90;999.90;;;;;;;;;;6122534;23;20381;-78
2024/03/07 04:08:15;;;;;;;1999.90;999.90;;;;;;;;;;6121928;23;20021;-79
2024/03/07 04:10:42;;;;;;;1999.90;999.90;;;;;;;;;;6122234;23;20449;-78
2024/03/07 04:13:08;;;;;;;1999.90;999.90;;;;;;;;;;6122390;23;20030;-79
2024/03/07 04:15:35;;;;;;;1999.90;999.90;;;;;;;;;;6122297;23;20536;-79
2024/03/07 04:18:02;;;;;;;1999.90;999.90;;;;;;;;;;6122454;23;20022;-79
2024/03/07 04:20:28;;;;;;;1999.90;999.90;;;;;;;;;;6122595;23;20021;-79
2024/03/07 04:22:56;;;;;;;1999.90;999.90;;;;;;;;;;6122594;23;20022;-78
2024/03/07 04:25:24;;;;;;;1999.90;999.90;;;;;;;;;;6122414;23;20018;-77
2024/03/07 04:27:51;;;;;;;1999.90;999.90;;;;;;;;;;6122237;23;20032;-78
2024/03/07 04:30:18;;;;;;;1999.90;999.90;;;;;;;;;;6122301;23;20093;-77
2024/03/07 04:32:44;;;;;;;1999.90;999.90;;;;;;;;;;6122001;23;20475;-78
2024/03/07 04:35:12;;;;;;;1999.90;999.90;;;;;;;;;;6122479;23;20022;-78
2024/03/07 04:37:39;;;;;;;1999.90;999.90;;;;;;;;;;6121809;23;20045;-77
2024/03/07 04:40:14;;;;;;;1999.90;999.90;;;;;;;;;;6122147;23;20104;-79
2024/03/07 04:42:42;;;;;;;1999.90;999.90;;;;;;;;;;6121815;23;20057;-78
2024/03/07 04:45:10;;;;;;;1999.90;999.90;;;;;;;;;;6121905;23;20418;-77
2024/03/07 04:47:38;;;;;;;1999.90;999.90;;;;;;;;;;6121880;23;20382;-77
2024/03/07 04:50:05;;;;;;;1999.90;999.90;;;;;;;;;;6121862;23;20022;-78
2024/03/07 04:52:32;;;;;;;1999.90;999.90;;;;;;;;;;6121737;23;20457;-78
2024/03/07 04:54:59;;;;;;;1999.90;999.90;;;;;;;;;;6121785;23;20075;-77
2024/03/07 04:57:27;;;;;;;1999.90;999.90;;;;;;;;;;6122088;23;20057;-78
2024/03/07 04:59:53;;;;;;;1999.90;999.90;;;;;;;;;;6121940;23;20022;-78
2024/03/07 05:02:20;;;;;;;1999.90;999.90;;;;;;;;;;6121851;23;20022;-77
2024/03/07 05:04:49;;;;;;;1999.90;999.90;;;;;;;;;;6121344;23;20488;-77
2024/03/07 05:07:16;;;;;;;1999.90;999.90;;;;;;;;;;6121910;23;20032;-77
2024/03/07 05:09:42;;;;;;;1999.90;999.90;;;;;;;;;;6121937;23;20333;-77
2024/03/07 05:12:09;;;;;;;1999.90;999.90;;;;;;;;;;6121886;23;20028;-78
2024/03/07 05:14:37;;;;;;;1999.90;999.90;;;;;;;;;;6121987;23;20029;-78
2024/03/07 05:17:05;;;;;;;1999.90;999.90;;;;;;;;;;6122017;23;20032;-76
2024/03/07 05:19:33;;;;;;;1999.90;999.90;;;;;;;;;;6122127;23;20022;-77
2024/03/07 05:22:00;;;;;;;1999.90;999.90;;;;;;;;;;6121969;23;20044;-78
2024/03/07 05:24:27;;;;;;;1999.90;999.90;;;;;;;;;;6121829;23;20032;-77
2024/03/07 05:26:54;;;;;;;1999.90;999.90;;;;;;;;;;6121715;23;20025;-77
2024/03/07 05:29:20;;;;;;;1999.90;999.90;;;;;;;;;;6122119;23;20101;-79
2024/03/07 05:31:48;;;;;;;1999.90;999.90;;;;;;;;;;6121715;23;20025;-77
2024/03/07 05:34:18;;;;;;;1999.90;999.90;;;;;;;;;;6121924;23;20348;-77
2024/03/07 05:36:46;;;;;;;1999.90;999.90;;;;;;;;;;6121687;23;20018;-77
2024/03/07 05:39:13;;;;;;;1999.90;999.90;;;;;;;;;;6121537;23;20355;-77
2024/03/07 05:41:40;;;;;;;1999.90;999.90;;;;;;;;;;6121825;23;20025;-78
2024/03/07 05:44:09;;;;;;;1999.90;999.90;;;;;;;;;;6121160;23;20101;-78
2024/03/07 05:46:37;;;;;;;1999.90;999.90;;;;;;;;;;6121434;23;20085;-78
2024/03/07 05:49:05;;;;;;;1999.90;999.90;;;;;;;;;;6121420;23;20073;-78
2024/03/07 05:51:32;;;;;;;1999.90;999.90;;;;;;;;;;6121222;23;20022;-77
2024/03/07 05:53:58;;;;;;;1999.90;999.90;;;;;;;;;;6121033;23;20491;-78
2024/03/07 05:56:25;;;;;;;1999.90;999.90;;;;;;;;;;6121454;23;20367;-77
2024/03/07 05:58:51;;;;;;;1999.90;999.90;;;;;;;;;;6121476;23;20049;-77
2024/03/07 06:01:18;;;;;;;1999.90;999.90;;;;;;;;;;6121161;23;20026;-77
2024/03/07 06:03:45;;;;;;;1999.90;999.90;;;;;;;;;;6121607;23;20461;-77
2024/03/07 06:06:13;;;;;;;1999.90;999.90;;;;;;;;;;6121444;23;20022;-79
2024/03/07 06:08:41;;;;;;;1999.90;999.90;;;;;;;;;;6121309;23;20053;-78
2024/03/07 06:11:08;;;;;;;1999.90;999.90;;;;;;;;;;6121473;23;20022;-76
2024/03/07 06:13:35;;;;;;;1999.90;999.90;;;;;;;;;;6121761;23;20353;-78
2024/03/07 06:16:05;;;;;;;1999.90;999.90;;;;;;;;;;6122165;23;20028;-78
2024/03/07 06:18:32;;;;;;;1999.90;999.90;;;;;;;;;;6123681;23;20053;-77
2024/03/07 06:20:58;;;;;;;1999.90;999.90;;;;;;;;;;6123323;23;20077;-77
2024/03/07 06:23:28;;;;;;;1999.90;999.90;;;;;;;;;;6123498;23;20529;-77
2024/03/07 06:25:55;;;;;;;1999.90;999.90;;;;;;;;;;6124048;23;20018;-76
2024/03/07 06:28:22;;;;;;;1999.90;999.90;;;;;;;;;;6123295;23;20329;-77
2024/03/07 06:30:49;;;;;;;1999.90;999.90;;;;;;;;;;6123351;23;20100;-76
2024/03/07 06:33:16;;;;;;;1999.90;999.90;;;;;;;;;;6123290;23;20326;-78
2024/03/07 06:35:43;;;;;;;1999.90;999.90;;;;;;;;;;6123132;23;20026;-77
2024/03/07 06:38:11;;;;;;;1999.90;999.90;;;;;;;;;;6123162;23;20058;-77
2024/03/07 06:40:42;;;;;;;1999.90;999.90;;;;;;;;;;6122674;23;20026;-77
2024/03/07 06:43:10;;;;;;;1999.90;999.90;;;;;;;;;;6123056;23;20033;-78
2024/03/07 06:45:37;;;;;;;1999.90;999.90;;;;;;;;;;6123421;23;20022;-76
2024/03/07 06:48:06;;;;;;;1999.90;999.90;;;;;;;;;;6123633;23;20018;-78
2024/03/07 06:50:33;;;;;;;1999.90;999.90;;;;;;;;;;6123376;23;20021;-78
2024/03/07 06:53:00;;;;;;;1999.90;999.90;;;;;;;;;;6123407;23;20423;-77
2024/03/07 06:55:27;;;;;;;1999.90;999.90;;;;;;;;;;6123076;23;20096;-77
2024/03/07 06:57:55;;;;;;;1999.90;999.90;;;;;;;;;;6122824;23;20045;-78
2024/03/07 07:00:21;;;;;;;1999.90;999.90;;;;;;;;;;6123228;23;20041;-78
2024/03/07 07:02:49;;;;;;;1999.90;999.90;;;;;;;;;;6122476;23;20028;-78
2024/03/07 07:05:17;;;;;;;1999.90;999.90;;;;;;;;;;6123383;23;20328;-77
2024/03/07 07:07:45;;;;;;;1999.90;999.90;;;;;;;;;;6122762;23;20029;-78
2024/03/07 07:10:15;;;;;;;1999.90;999.90;;;;;;;;;;6122829;23;20028;-77
2024/03/07 07:12:42;;;;;;;1999.90;999.90;;;;;;;;;;6123069;23;20025;-77
2024/03/07 07:15:11;;;;;;;1999.90;999.90;;;;;;;;;;6123596;23;20022;-77
2024/03/07 07:17:37;;;;;;;1999.90;999.90;;;;;;;;;;6123181;23;20030;-77
2024/03/07 07:20:09;;;;;;;1999.90;999.90;;;;;;;;;;6122984;23;20018;-77
2024/03/07 07:22:36;;;;;;;1999.90;999.90;;;;;;;;;;6123203;23;20026;-78
2024/03/07 07:25:04;;;;;;;1999.90;999.90;;;;;;;;;;6123045;23;20108;-77
2024/03/07 07:27:31;;;;;;;1999.90;999.90;;;;;;;;;;6122492;23;20046;-78
2024/03/07 07:29:57;;;;;;;1999.90;999.90;;;;;;;;;;6122458;23;20515;-77
2024/03/07 07:32:26;;;;;;;1999.90;999.90;;;;;;;;;;6122897;23;20093;-77
2024/03/07 07:34:52;;;;;;;1999.90;999.90;;;;;;;;;;6122167;23;20089;-78
2024/03/07 07:37:19;;;;;;;1999.90;999.90;;;;;;;;;;6122139;23;20029;-77
2024/03/07 07:39:46;;;;;;;1999.90;999.90;;;;;;;;;;6122639;23;20104;-78
2024/03/07 07:42:12;;;;;;;1999.90;999.90;;;;;;;;;;6122899;23;20045;-78
2024/03/07 07:44:39;;;;;;;1999.90;999.90;;;;;;;;;;6122614;23;20022;-77
2024/03/07 07:47:07;;;;;;;1999.90;999.90;;;;;;;;;;6122477;23;20074;-78
2024/03/07 07:49:35;;;;;;;1999.90;999.90;;;;;;;;;;6122607;23;20073;-78
2024/03/07 07:52:02;;;;;;;1999.90;999.90;;;;;;;;;;6123052;23;20337;-77
2024/03/07 07:54:29;;;;;;;1999.90;999.90;;;;;;;;;;6122725;23;20022;-77
2024/03/07 07:56:55;;;;;;;1999.90;999.90;;;;;;;;;;6122671;23;20022;-78
2024/03/07 07:59:22;;;;;;;1999.90;999.90;;;;;;;;;;6122207;23;20025;-77
2024/03/07 08:01:48;;;;;;;1999.90;999.90;;;;;;;;;;6122109;23;20028;-78
2024/03/07 08:04:15;;;;;;;1999.90;999.90;;;;;;;;;;6122569;23;20100;-77
2024/03/07 08:06:43;;;;;;;1999.90;999.90;;;;;;;;;;6122547;23;20319;-78
2024/03/07 08:09:10;;;;;;;1999.90;999.90;;;;;;;;;;6122576;23;20018;-77
2024/03/07 08:11:38;;;;;;;1999.90;999.90;;;;;;;;;;6122334;23;20022;-77
2024/03/07 08:14:06;;;;;;;1999.90;999.90;;;;;;;;;;6122839;23;20053;-77
2024/03/07 08:16:32;;;;;;;1999.90;999.90;;;;;;;;;;6122520;23;20457;-77
2024/03/07 08:18:59;;;;;;;1999.90;999.90;;;;;;;;;;6124082;23;20564;-78
2024/03/07 08:21:25;;;;;;;1999.90;999.90;;;;;;;;;;6126930;23;20021;-78
2024/03/07 08:23:55;;;;;;;1999.90;999.90;;;;;;;;;;6126335;23;20108;-77
2024/03/07 08:26:21;;;;;;;1999.90;999.90;;;;;;;;;;6123280;23;20026;-77
2024/03/07 08:28:48;;;;;;;1999.90;999.90;;;;;;;;;;6122329;23;20057;-77
2024/03/07 08:31:14;;;;;;;1999.90;999.90;;;;;;;;;;6121727;23;20029;-77
2024/03/07 08:33:41;;;;;;;1999.90;999.90;;;;;;;;;;6122247;23;20029;-76
2024/03/07 08:36:09;;;;;;;1999.90;999.90;;;;;;;;;;6122952;23;20025;-76
2024/03/07 08:38:37;;;;;;;1999.90;999.90;;;;;;;;;;6121685;23;20036;-77
2024/03/07 08:41:05;;;;;;;1999.90;999.90;;;;;;;;;;6122007;23;20465;-79
2024/03/07 08:43:31;;;;;;;1999.90;999.90;;;;;;;;;;6122464;23;20053;-78
2024/03/07 08:45:58;;;;;;;1999.90;999.90;;;;;;;;;;6122453;23;20025;-77
2024/03/07 08:48:24;;;;;;;1999.90;999.90;;;;;;;;;;6121771;23;20044;-78
2024/03/07 08:50:51;;;;;;;1999.90;999.90;;;;;;;;;;6122178;23;20022;-78
2024/03/07 08:53:18;;;;;;;1999.90;999.90;;;;;;;;;;6122168;23;20026;-77
2024/03/07 08:55:45;;;;;;;1999.90;999.90;;;;;;;;;;6121644;23;20100;-78
2024/03/07 08:58:13;;;;;;;1999.90;999.90;;;;;;;;;;6122015;23;20029;-77
2024/03/07 09:00:40;;;;;;;1999.90;999.90;;;;;;;;;;6122074;23;20152;-78
2024/03/07 09:03:09;;;;;;;1999.90;999.90;;;;;;;;;;6122012;23;20018;-79
2024/03/07 09:05:36;;;;;;;1999.90;999.90;;;;;;;;;;6122052;23;20469;-78
2024/03/07 09:08:03;;;;;;;1999.90;999.90;;;;;;;;;;6121880;23;20021;-77
2024/03/07 09:10:30;;;;;;;1999.90;999.90;;;;;;;;;;6121932;23;20057;-78
2024/03/07 09:12:57;;;;;;;1999.90;999.90;;;;;;;;;;6122358;23;20022;-78
2024/03/07 09:15:25;;;;;;;1999.90;999.90;;;;;;;;;;6122057;23;20341;-77
2024/03/07 09:17:52;;;;;;;1999.90;999.90;;;;;;;;;;6121868;23;20022;-77
2024/03/07 09:20:19;;;;;;;1999.90;999.90;;;;;;;;;;6122185;23;20453;-77
2024/03/07 09:22:48;;;;;;;1999.90;999.90;;;;;;;;;;6122489;23;20029;-78
2024/03/07 09:25:16;;;;;;;1999.90;999.90;;;;;;;;;;6121828;23;20358;-77
2024/03/07 09:27:43;;;;;;;1999.90;999.90;;;;;;;;;;6121764;23;20022;-78
2024/03/07 09:30:11;;;;;;;1999.90;999.90;;;;;;;;;;6121737;23;20044;-78
2024/03/07 09:32:40;;;;;;;1999.90;999.90;;;;;;;;;;6121827;23;20025;-79
2024/03/07 09:35:11;;;;;;;1999.90;999.90;;;;;;;;;;6121729;23;20028;-77
2024/03/07 09:37:38;;;;;;;1999.90;999.90;;;;;;;;;;6121881;23;20022;-78
2024/03/07 09:40:06;;;;;;;1999.90;999.90;;;;;;;;;;6121850;23;20017;-78
2024/03/07 09:42:35;;;;;;;1999.90;999.90;;;;;;;;;;6121918;23;20093;-78
2024/03/07 09:45:03;;;;;;;1999.90;999.90;;;;;;;;;;6121474;23;20069;-78
2024/03/07 09:47:31;;;;;;;1999.90;999.90;;;;;;;;;;6122007;23;20025;-78
2024/03/07 09:49:59;;;;;;;1999.90;999.90;;;;;;;;;;6121522;23;20029;-78
2024/03/07 09:52:29;;;;;;;1999.90;999.90;;;;;;;;;;6125221;23;20049;-78
2024/03/07 09:54:55;;;;;;;1999.90;999.90;;;;;;;;;;6124558;23;20576;-77
2024/03/07 09:57:23;;;;;;;1999.90;999.90;;;;;;;;;;6125187;23;20021;-79
2024/03/07 09:59:52;;;;;;;1999.90;999.90;;;;;;;;;;6124747;23;20065;-77
2024/03/07 10:02:20;;;;;;;1999.90;999.90;;;;;;;;;;6124939;23;20029;-77
2024/03/07 10:04:52;;;;;;;1999.90;999.90;;;;;;;;;;6125079;23;20049;-78
2024/03/07 10:07:20;;;;;;;1999.90;999.90;;;;;;;;;;6124625;23;20022;-78
2024/03/07 10:09:49;;;;;;;1999.90;999.90;;;;;;;;;;6124657;23;20105;-80
2024/03/07 10:12:15;;;;;;;1999.90;999.90;;;;;;;;;;6124764;23;20519;-78
2024/03/07 10:14:50;;;;;;;1999.90;999.90;;;;;;;;;;6124599;23;20026;-78
2024/03/07 10:17:17;;;;;;;1999.90;999.90;;;;;;;;;;6124699;23;20026;-77
2024/03/07 10:19:47;;;;;;;1999.90;999.90;;;;;;;;;;6124700;23;20053;-77
2024/03/07 10:22:14;;;;;;;1999.90;999.90;;;;;;;;;;6124829;23;20018;-76
2024/03/07 10:24:50;;;;;;;1999.90;999.90;;;;;;;;;;6124361;23;20484;-79
2024/03/07 10:27:18;;;;;;;;;;;;;;;;;;6125624;23;20026;-79
2024/03/07 10:29:46;;;;;;;1999.90;999.90;;;;;;;;;;6125021;23;20297;-78
2024/03/07 10:32:13;;;;;;;1999.90;999.90;;;;;;;;;;6124868;23;20028;-78
2024/03/07 10:34:45;;;;;;;1999.90;999.90;;;;;;;;;;6125230;23;20029;-78
2024/03/07 10:37:15;;;;;;;1999.90;999.90;;;;;;;;;;6125214;23;20018;-78
2024/03/07 10:39:44;;;;;;;1999.90;999.90;;;;;;;;;;6124940;23;20081;-79
2024/03/07 10:42:15;;;;;;;1999.90;999.90;;;;;;;;;;6124537;23;20104;-78
2024/03/07 10:44:44;;;;;;;1999.90;999.90;;;;;;;;;;6125136;23;20028;-79
2024/03/07 10:47:14;;;;;;;1999.90;999.90;;;;;;;;;;6124987;23;20021;-78
2024/03/07 10:49:53;;;;;;;1999.90;999.90;;;;;;;;;;6124723;23;20048;-78
2024/03/07 10:52:30;;;;;;;1999.90;999.90;;;;;;;;;;6124450;23;20523;-79
2024/03/07 10:55:10;;;;;;;;;;;;;;;;;;6125211;23;20029;-78
2024/03/07 10:57:45;;;;;;;1999.90;999.90;;;;;;;;;;6124983;23;20039;-78
2024/03/07 11:00:29;;;;;;;1999.90;999.90;;;;;;;;;;6124611;23;20028;-78
2024/03/07 11:02:56;;;;;;;1999.90;999.90;;;;;;;;;;6122705;23;20104;-79
2024/03/07 11:05:29;;;;;;;1999.90;999.90;;;;;;;;;;6122999;23;20024;-79
2024/03/07 11:07:57;;;;;;;1999.90;999.90;;;;;;;;;;6123453;23;20096;-79
2024/03/07 11:10:25;;;;;;;1999.90;999.90;;;;;;;;;;6123118;23;20022;-78
2024/03/07 11:12:53;;;;;;;1999.90;999.90;;;;;;;;;;6123303;23;20028;-78
2024/03/07 11:15:21;;;;;;;1999.90;999.90;;;;;;;;;;6122976;23;20026;-79
2024/03/07 11:17:49;;;;;;;1999.90;999.90;;;;;;;;;;6123027;23;20028;-78
2024/03/07 11:20:19;;;;;;;1999.90;999.90;;;;;;;;;;6122563;23;20036;-79
2024/03/07 11:22:46;;;;;;;1999.90;999.90;;;;;;;;;;6122842;23;20022;-79
2024/03/07 11:25:13;;;;;;;1999.90;999.90;;;;;;;;;;6122812;23;20033;-80
2024/03/07 11:27:51;;;;;;;1999.90;999.90;;;;;;;;;;6123046;23;20080;-78
2024/03/07 11:30:18;;;;;;;1999.90;999.90;;;;;;;;;;6122440;23;20444;-78
2024/03/07 11:32:44;;;;;;;1999.90;999.90;;;;;;;;;;6122920;23;20021;-78
2024/03/07 11:35:14;;;;;;;1999.90;999.90;;;;;;;;;;6122668;23;20057;-78
2024/03/07 11:37:43;;;;;;;1999.90;999.90;;;;;;;;;;6122873;23;20030;-79
2024/03/07 11:40:18;;;;;;;1999.90;999.90;;;;;;;;;;6122802;23;20026;-79
2024/03/07 11:42:47;;;;;;;1999.90;999.90;;;;;;;;;;6122582;23;20499;-78
2024/03/07 11:45:24;;;;;;;1999.90;999.90;;;;;;;;;;6122779;23;20022;-79
2024/03/07 11:47:52;;;;;;;1999.90;999.90;;;;;;;;;;6122432;23;20465;-78
2024/03/07 11:50:19;;;;;;;1999.90;999.90;;;;;;;;;;6122459;23;20030;-79
2024/03/07 11:52:46;;;;;;;1999.90;999.90;;;;;;;;;;6122739;23;20053;-79
2024/03/07 11:55:15;;;;;;;1999.90;999.90;;;;;;;;;;6122383;23;20028;-79
2024/03/07 11:57:44;;;;;;;1999.90;999.90;;;;;;;;;;6122414;23;20025;-78
2024/03/07 12:00:15;;;;;;;1999.90;999.90;;;;;;;;;;6122648;23;20036;-79
2024/03/07 12:02:43;;;;;;;1999.90;999.90;;;;;;;;;;6122704;23;20022;-78
2024/03/07 12:05:09;;;;;;;1999.90;999.90;;;;;;;;;;6123002;23;20026;-79
2024/03/07 12:07:36;;;;;;;1999.90;999.90;;;;;;;;;;6122446;23;20029;-78
2024/03/07 12:10:04;;;;;;;1999.90;999.90;;;;;;;;;;6122756;23;20110;-79
2024/03/07 12:12:32;;;;;;;1999.90;999.90;;;;;;;;;;6122032;23;20578;-79
2024/03/07 12:14:59;;;;;;;1999.90;999.90;;;;;;;;;;6122338;23;20351;-78
2024/03/07 12:17:29;;;;;;;1999.90;999.90;;;;;;;;;;6122702;23;20025;-78
2024/03/07 12:20:01;;;;;;;1999.90;999.90;;;;;;;;;;6121855;23;20469;-79
2024/03/07 12:22:27;;;;;;;1999.90;999.90;;;;;;;;;;6122022;23;20026;-78
2024/03/07 12:25:02;;;;;;;1999.90;999.90;;;;;;;;;;6122543;23;20028;-78
2024/03/07 12:27:29;;;;;;;1999.90;999.90;;;;;;;;;;6122605;23;20106;-80
2024/03/07 12:29:55;;;;;;;1999.90;999.90;;;;;;;;;;6123673;23;20026;-80
2024/03/07 12:32:24;;;;;;;1999.90;999.90;;;;;;;;;;6130414;23;20081;-79
2024/03/07 12:34:52;;;;;;;1999.90;999.90;;;;;;;;;;6129038;23;20030;-79
2024/03/07 12:37:26;;;;;;;1999.90;999.90;;;;;;;;;;6122475;23;20375;-79
2024/03/07 12:40:00;;;;;;;1999.90;999.90;;;;;;;;;;6122392;23;20030;-79
2024/03/07 12:42:28;;;;;;;1999.90;999.90;;;;;;;;;;6122128;23;20018;-78
2024/03/07 12:44:55;;;;;;;1999.90;999.90;;;;;;;;;;6122188;23;20025;-80
2024/03/07 12:47:25;;;;;;;1999.90;999.90;;;;;;;;;;6122538;23;20093;-78
2024/03/07 12:49:53;;;;;;;1999.90;999.90;;;;;;;;;;6122334;23;20097;-79
2024/03/07 12:52:19;;;;;;;1999.90;999.90;;;;;;;;;;6121937;23;20109;-79
2024/03/07 12:54:48;;;;;;;1999.90;999.90;;;;;;;;;;6122015;23;20332;-79
2024/03/07 12:57:14;;;;;;;1999.90;999.90;;;;;;;;;;6122230;23;20052;-79
2024/03/07 12:59:41;;;;;;;1999.90;999.90;;;;;;;;;;6122298;23;20037;-79
2024/03/07 13:02:08;;;;;;;1999.90;999.90;;;;;;;;;;6121861;23;20028;-78
2024/03/07 13:04:37;;;;;;;1999.90;999.90;;;;;;;;;;6121674;23;20390;-78
2024/03/07 13:07:05;;;;;;;1999.90;999.90;;;;;;;;;;6121807;23;20489;-78
2024/03/07 13:09:32;;;;;;;1999.90;999.90;;;;;;;;;;6121347;23;20026;-79
2024/03/07 13:12:00;;;;;;;1999.90;999.90;;;;;;;;;;6121958;23;20028;-79
2024/03/07 13:14:29;;;;;;;1999.90;999.90;;;;;;;;;;6121590;23;20061;-78
2024/03/07 13:16:56;;;;;;;1999.90;999.90;;;;;;;;;;6122015;23;20101;-78
2024/03/07 13:19:22;;;;;;;1999.90;999.90;;;;;;;;;;6121806;23;20103;-78
2024/03/07 13:21:49;;;;;;;1999.90;999.90;;;;;;;;;;6121922;23;20028;-79
2024/03/07 13:24:17;;;;;;;1999.90;999.90;;;;;;;;;;6121753;23;20519;-78
2024/03/07 13:26:44;;;;;;;1999.90;999.90;;;;;;;;;;6121478;23;20118;-78
2024/03/07 13:29:15;;;;;;;1999.90;999.90;;;;;;;;;;6122059;23;20021;-79
2024/03/07 13:31:44;;;;;;;1999.90;999.90;;;;;;;;;;6122252;23;20018;-78
2024/03/07 13:34:13;;;;;;;1999.90;999.90;;;;;;;;;;6121959;23;20400;-77
2024/03/07 13:36:40;;;;;;;1999.90;999.90;;;;;;;;;;6121684;23;20496;-77
2024/03/07 13:39:10;;;;;;;1999.90;999.90;;;;;;;;;;6121937;23;20024;-79
2024/03/07 13:41:39;;;;;;;1999.90;999.90;;;;;;;;;;6121594;23;20029;-77
2024/03/07 13:44:05;;;;;;;1999.90;999.90;;;;;;;;;;6121836;23;20032;-77